sensor_id;sensor_type;location;lat;lon;timestamp;pressure;altitude;pressure_sealevel;temperature;humidity
76687;BME280;65615;47.378;19.344;2023-02-28T05:31:23;101318.19;;;0.55;72.43
76687;BME280;65615;47.378;19.344;2023-02-28T05:35:26;101318.19;;;0.55;72.43
76687;BME280;65615;47.378;19.344;2023-02-28T05:39:29;101326.88;;;0.15;73.23
76687;BME280;65615;47.378;19.344;2023-02-28T05:43:33;101330.19;;;0.19;73.01
76687;BME280;65615;47.378;19.344;2023-02-28T05:47:36;101340.56;;;0.19;72.58
76687;BME280;65615;47.378;19.344;2023-02-28T05:51:39;101335.00;;;0.28;72.04
76687;BME280;65615;47.378;19.344;2023-02-28T05:55:42;101330.88;;;0.22;72.26
76687;BME280;65615;47.378;19.344;2023-02-28T05:59:45;101345.91;;;0.16;73.11
76687;BME280;65615;47.378;19.344;2023-02-28T06:03:48;101348.28;;;0.20;73.15
76687;BME280;65615;47.378;19.344;2023-02-28T06:07:52;101345.13;;;0.34;72.59
76687;BME280;65615;47.378;19.344;2023-02-28T06:11:57;101348.09;;;0.45;71.65
76687;BME280;65615;47.378;19.344;2023-02-28T06:16:03;101345.81;;;0.37;72.71
76687;BME280;65615;47.378;19.344;2023-02-28T06:20:07;101355.09;;;0.43;73.36
76687;BME280;65615;47.378;19.344;2023-02-28T06:24:15;101355.22;;;0.60;72.16
76687;BME280;65615;47.378;19.344;2023-02-28T06:28:18;101364.44;;;0.67;72.32
76687;BME280;65615;47.378;19.344;2023-02-28T06:32:22;101364.31;;;0.70;70.46
76687;BME280;65615;47.378;19.344;2023-02-28T06:36:25;101371.75;;;0.77;70.66
76687;BME280;65615;47.378;19.344;2023-02-28T06:40:28;101377.62;;;1.01;70.43
76687;BME280;65615;47.378;19.344;2023-02-28T06:44:36;101379.66;;;1.13;70.36
76687;BME280;65615;47.378;19.344;2023-02-28T06:48:40;101379.66;;;1.13;70.38
76687;BME280;65615;47.378;19.344;2023-02-28T06:52:42;101381.09;;;1.20;70.90
76687;BME280;65615;47.378;19.344;2023-02-28T06:56:47;101383.16;;;1.49;69.88
76687;BME280;65615;47.378;19.344;2023-02-28T07:00:52;101383.16;;;1.49;68.07
76687;BME280;65615;47.378;19.344;2023-02-28T07:04:56;101389.81;;;1.73;68.28
76687;BME280;65615;47.378;19.344;2023-02-28T07:08:59;101389.22;;;2.03;66.84
76687;BME280;65615;47.378;19.344;2023-02-28T07:13:10;101394.59;;;2.17;66.36
76687;BME280;65615;47.378;19.344;2023-02-28T07:17:13;101401.19;;;2.07;66.73
76687;BME280;65615;47.378;19.344;2023-02-28T07:21:16;101404.94;;;2.01;66.12
76687;BME280;65615;47.378;19.344;2023-02-28T07:25:46;101406.87;;;2.32;62.77
76687;BME280;65615;47.378;19.344;2023-02-28T07:29:51;101408.62;;;2.31;63.95
76687;BME280;65615;47.378;19.344;2023-02-28T07:34:04;101409.63;;;2.46;62.45
76687;BME280;65615;47.378;19.344;2023-02-28T07:38:10;101413.63;;;2.36;63.50
76687;BME280;65615;47.378;19.344;2023-02-28T07:42:14;101407.00;;;2.29;62.99
76687;BME280;65615;47.378;19.344;2023-02-28T07:46:21;101409.94;;;2.40;62.21
76687;BME280;65615;47.378;19.344;2023-02-28T07:50:30;101418.66;;;2.39;62.91
76687;BME280;65615;47.378;19.344;2023-02-28T07:54:34;101415.69;;;2.46;61.17
76687;BME280;65615;47.378;19.344;2023-02-28T07:58:36;101418.22;;;2.48;61.20
76687;BME280;65615;47.378;19.344;2023-02-28T08:02:40;101421.59;;;2.50;61.98
76687;BME280;65615;47.378;19.344;2023-02-28T08:06:45;101416.78;;;2.75;60.30
76687;BME280;65615;47.378;19.344;2023-02-28T08:10:48;101417.97;;;3.02;60.83
76687;BME280;65615;47.378;19.344;2023-02-28T08:14:55;101414.34;;;2.72;61.47
76687;BME280;65615;47.378;19.344;2023-02-28T08:19:01;101414.84;;;3.11;61.36
76687;BME280;65615;47.378;19.344;2023-02-28T08:23:14;101424.22;;;3.31;61.48
76687;BME280;65615;47.378;19.344;2023-02-28T08:27:20;101418.94;;;3.32;61.76
76687;BME280;65615;47.378;19.344;2023-02-28T08:31:25;101425.50;;;3.39;60.53
76687;BME280;65615;47.378;19.344;2023-02-28T08:35:41;101428.91;;;3.73;61.41
76687;BME280;65615;47.378;19.344;2023-02-28T08:39:51;101415.44;;;4.10;61.02
76687;BME280;65615;47.378;19.344;2023-02-28T08:43:57;101411.44;;;4.18;62.06
76687;BME280;65615;47.378;19.344;2023-02-28T08:48:04;101413.41;;;4.29;61.33
76687;BME280;65615;47.378;19.344;2023-02-28T08:52:07;101421.50;;;4.40;60.79
76687;BME280;65615;47.378;19.344;2023-02-28T08:56:15;101417.94;;;4.41;59.74
76687;BME280;65615;47.378;19.344;2023-02-28T09:00:23;101420.78;;;4.52;60.70
76687;BME280;65615;47.378;19.344;2023-02-28T09:04:34;101418.91;;;3.95;61.34
76687;BME280;65615;47.378;19.344;2023-02-28T09:09:02;101414.81;;;4.64;60.74
76687;BME280;65615;47.378;19.344;2023-02-28T09:14:03;101416.06;;;4.43;59.91
76687;BME280;65615;47.378;19.344;2023-02-28T09:18:34;101420.19;;;4.77;59.54
76687;BME280;65615;47.378;19.344;2023-02-28T09:22:58;101415.03;;;5.17;58.79
76687;BME280;65615;47.378;19.344;2023-02-28T09:27:01;101418.59;;;5.16;59.46
76687;BME280;65615;47.378;19.344;2023-02-28T09:31:10;101421.00;;;5.05;58.93
76687;BME280;65615;47.378;19.344;2023-02-28T09:35:15;101412.78;;;5.26;59.65
76687;BME280;65615;47.378;19.344;2023-02-28T09:39:20;101408.47;;;5.39;58.46
76687;BME280;65615;47.378;19.344;2023-02-28T09:43:51;101411.78;;;5.69;57.82
76687;BME280;65615;47.378;19.344;2023-02-28T09:48:37;101420.75;;;5.65;57.19
76687;BME280;65615;47.378;19.344;2023-02-28T09:52:33;101409.38;;;6.19;56.70
76687;BME280;65615;47.378;19.344;2023-02-28T09:56:40;101407.53;;;6.07;55.11
76687;BME280;65615;47.378;19.344;2023-02-28T10:05:35;101403.44;;;7.05;53.23
76687;BME280;65615;47.378;19.344;2023-02-28T10:09:59;101400.50;;;6.84;53.37
76687;BME280;65615;47.378;19.344;2023-02-28T10:14:27;101404.91;;;6.84;55.21
76687;BME280;65615;47.378;19.344;2023-02-28T10:18:59;101404.59;;;7.50;51.79
76687;BME280;65615;47.378;19.344;2023-02-28T10:27:25;101394.16;;;7.61;51.27
76687;BME280;65615;47.378;19.344;2023-02-28T10:31:29;101400.34;;;7.60;52.18
76687;BME280;65615;47.378;19.344;2023-02-28T10:35:44;101400.22;;;7.38;53.71
76687;BME280;65615;47.378;19.344;2023-02-28T10:39:47;101393.19;;;7.62;51.77
76687;BME280;65615;47.378;19.344;2023-02-28T10:44:20;101387.03;;;6.39;55.29
76687;BME280;65615;47.378;19.344;2023-02-28T10:48:30;101388.31;;;6.58;55.73
76687;BME280;65615;47.378;19.344;2023-02-28T10:52:39;101382.94;;;6.60;53.86
76687;BME280;65615;47.378;19.344;2023-02-28T10:57:18;101379.69;;;6.56;57.10
76687;BME280;65615;47.378;19.344;2023-02-28T11:01:44;101379.87;;;6.53;55.87
76687;BME280;65615;47.378;19.344;2023-02-28T11:06:08;101378.09;;;5.89;56.86
76687;BME280;65615;47.378;19.344;2023-02-28T11:10:36;101371.06;;;6.29;56.16
76687;BME280;65615;47.378;19.344;2023-02-28T11:14:51;101371.91;;;6.30;57.30
76687;BME280;65615;47.378;19.344;2023-02-28T11:18:55;101380.47;;;6.07;58.11
76687;BME280;65615;47.378;19.344;2023-02-28T11:23:11;101373.28;;;5.96;57.68
76687;BME280;65615;47.378;19.344;2023-02-28T11:36:12;101364.59;;;6.72;57.27
76687;BME280;65615;47.378;19.344;2023-02-28T11:40:48;101358.78;;;6.67;56.23
76687;BME280;65615;47.378;19.344;2023-02-28T11:45:29;101351.97;;;6.27;57.62
76687;BME280;65615;47.378;19.344;2023-02-28T12:21:37;101338.69;;;7.04;54.64
76687;BME280;65615;47.378;19.344;2023-02-28T12:26:16;101331.84;;;7.14;54.88
76687;BME280;65615;47.378;19.344;2023-02-28T12:30:32;101323.22;;;7.48;53.95
76687;BME280;65615;47.378;19.344;2023-02-28T12:39:33;101306.94;;;7.67;56.36
76687;BME280;65615;47.378;19.344;2023-02-28T12:44:12;101309.81;;;8.44;53.50
76687;BME280;65615;47.378;19.344;2023-02-28T12:48:45;101315.94;;;8.10;53.31
76687;BME280;65615;47.378;19.344;2023-02-28T12:57:36;101299.22;;;7.53;54.64
76687;BME280;65615;47.378;19.344;2023-02-28T13:11:03;101296.97;;;7.83;53.80
76687;BME280;65615;47.378;19.344;2023-02-28T13:15:34;101287.34;;;6.87;55.31
76687;BME280;65615;47.378;19.344;2023-02-28T13:28:11;101282.81;;;7.73;55.01
76687;BME280;65615;47.378;19.344;2023-02-28T13:32:36;101290.72;;;7.73;54.90
76687;BME280;65615;47.378;19.344;2023-02-28T13:36:42;101280.66;;;8.24;53.03
76687;BME280;65615;47.378;19.344;2023-02-28T13:45:34;101271.31;;;10.45;48.24
76687;BME280;65615;47.378;19.344;2023-02-28T13:49:45;101262.56;;;11.33;45.40
76687;BME280;65615;47.378;19.344;2023-02-28T13:53:57;101264.88;;;10.98;45.17
76687;BME280;65615;47.378;19.344;2023-02-28T14:07:04;101255.13;;;8.59;50.61
76687;BME280;65615;47.378;19.344;2023-02-28T14:11:15;101261.22;;;8.37;52.41
76687;BME280;65615;47.378;19.344;2023-02-28T14:19:45;101247.56;;;7.41;55.52
76687;BME280;65615;47.378;19.344;2023-02-28T14:32:53;101237.69;;;7.08;57.67
76687;BME280;65615;47.378;19.344;2023-02-28T14:37:30;101251.41;;;6.88;58.31
76687;BME280;65615;47.378;19.344;2023-02-28T14:41:42;101236.56;;;7.00;57.65
76687;BME280;65615;47.378;19.344;2023-02-28T14:45:57;101239.47;;;7.08;59.21
76687;BME280;65615;47.378;19.344;2023-02-28T14:50:04;101243.56;;;6.75;58.14
76687;BME280;65615;47.378;19.344;2023-02-28T14:54:13;101242.59;;;6.40;60.62
76687;BME280;65615;47.378;19.344;2023-02-28T15:02:25;101242.34;;;6.56;60.48
76687;BME280;65615;47.378;19.344;2023-02-28T15:06:28;101245.53;;;6.48;61.13
76687;BME280;65615;47.378;19.344;2023-02-28T15:10:32;101248.91;;;6.13;63.37
76687;BME280;65615;47.378;19.344;2023-02-28T15:14:36;101250.59;;;6.01;62.82
76687;BME280;65615;47.378;19.344;2023-02-28T15:22:51;101244.84;;;5.82;64.34
76687;BME280;65615;47.378;19.344;2023-02-28T15:26:57;101253.03;;;5.65;65.17
76687;BME280;65615;47.378;19.344;2023-02-28T15:31:03;101254.25;;;5.59;66.21
76687;BME280;65615;47.378;19.344;2023-02-28T15:35:28;101245.00;;;5.54;66.35
76687;BME280;65615;47.378;19.344;2023-02-28T15:39:41;101248.44;;;5.42;66.69
76687;BME280;65615;47.378;19.344;2023-02-28T15:43:44;101256.97;;;5.58;66.99
76687;BME280;65615;47.378;19.344;2023-02-28T15:47:47;101248.31;;;5.31;68.07
76687;BME280;65615;47.378;19.344;2023-02-28T15:51:51;101252.53;;;5.46;67.76
76687;BME280;65615;47.378;19.344;2023-02-28T15:56:00;101241.75;;;5.11;68.58
